sensor_id;sensor_type;location;lat;lon;timestamp;P1;durP1;ratioP1;P2;durP2;ratioP2
56299;SDS011;42209;6.376;-10.782;2023-08-12T00:02:16;9.95;;;6.22;;
56299;SDS011;42209;6.376;-10.782;2023-08-12T00:04:45;10.25;;;7.60;;
56299;SDS011;42209;6.376;-10.782;2023-08-12T00:07:13;8.32;;;7.40;;
56299;SDS011;42209;6.376;-10.782;2023-08-12T00:09:42;10.38;;;7.07;;
56299;SDS011;42209;6.376;-10.782;2023-08-12T00:12:10;8.98;;;7.65;;
56299;SDS011;42209;6.376;-10.782;2023-08-12T00:14:39;9.55;;;7.43;;
56299;SDS011;42209;6.376;-10.782;2023-08-12T00:17:07;10.10;;;7.25;;
56299;SDS011;42209;6.376;-10.782;2023-08-12T00:19:36;7.93;;;6.82;;
56299;SDS011;42209;6.376;-10.782;2023-08-12T00:22:04;10.25;;;7.50;;
56299;SDS011;42209;6.376;-10.782;2023-08-12T00:24:33;11.88;;;7.05;;
56299;SDS011;42209;6.376;-10.782;2023-08-12T00:27:01;10.73;;;6.35;;
56299;SDS011;42209;6.376;-10.782;2023-08-12T00:29:30;7.40;;;6.57;;
56299;SDS011;42209;6.376;-10.782;2023-08-12T00:31:58;8.55;;;6.88;;
56299;SDS011;42209;6.376;-10.782;2023-08-12T00:34:27;9.52;;;6.50;;
56299;SDS011;42209;6.376;-10.782;2023-08-12T00:36:55;9.98;;;7.03;;
56299;SDS011;42209;6.376;-10.782;2023-08-12T00:39:24;10.68;;;6.20;;
56299;SDS011;42209;6.376;-10.782;2023-08-12T00:41:52;9.75;;;6.32;;
56299;SDS011;42209;6.376;-10.782;2023-08-12T00:44:20;8.40;;;6.72;;
56299;SDS011;42209;6.376;-10.782;2023-08-12T00:46:49;8.07;;;6.53;;
56299;SDS011;42209;6.376;-10.782;2023-08-12T00:49:18;10.40;;;6.80;;
56299;SDS011;42209;6.376;-10.782;2023-08-12T00:54:15;7.55;;;6.15;;
56299;SDS011;42209;6.376;-10.782;2023-08-12T00:56:45;7.65;;;5.80;;
56299;SDS011;42209;6.376;-10.782;2023-08-12T00:59:13;8.75;;;6.80;;
56299;SDS011;42209;6.376;-10.782;2023-08-12T01:01:44;10.00;;;6.28;;
56299;SDS011;42209;6.376;-10.782;2023-08-12T01:04:13;6.72;;;6.03;;
56299;SDS011;42209;6.376;-10.782;2023-08-12T01:06:42;8.18;;;5.80;;
56299;SDS011;42209;6.376;-10.782;2023-08-12T01:09:10;8.32;;;4.88;;
56299;SDS011;42209;6.376;-10.782;2023-08-12T01:11:41;8.00;;;5.57;;
56299;SDS011;42209;6.376;-10.782;2023-08-12T01:14:49;7.38;;;5.45;;
56299;SDS011;42209;6.376;-10.782;2023-08-12T01:17:38;7.13;;;5.93;;
56299;SDS011;42209;6.376;-10.782;2023-08-12T01:20:11;7.15;;;5.55;;
56299;SDS011;42209;6.376;-10.782;2023-08-12T01:22:40;9.27;;;6.20;;
56299;SDS011;42209;6.376;-10.782;2023-08-12T01:25:11;7.90;;;6.00;;
56299;SDS011;42209;6.376;-10.782;2023-08-12T01:27:39;8.98;;;6.97;;
56299;SDS011;42209;6.376;-10.782;2023-08-12T01:30:07;10.18;;;7.18;;
56299;SDS011;42209;6.376;-10.782;2023-08-12T01:37:39;9.40;;;5.95;;
56299;SDS011;42209;6.376;-10.782;2023-08-12T01:40:07;5.32;;;4.82;;
56299;SDS011;42209;6.376;-10.782;2023-08-12T01:42:38;7.93;;;5.82;;
56299;SDS011;42209;6.376;-10.782;2023-08-12T01:45:07;8.27;;;6.13;;
56299;SDS011;42209;6.376;-10.782;2023-08-12T01:47:36;8.98;;;5.80;;
56299;SDS011;42209;6.376;-10.782;2023-08-12T01:50:05;6.03;;;5.22;;
56299;SDS011;42209;6.376;-10.782;2023-08-12T01:52:34;7.63;;;5.47;;
56299;SDS011;42209;6.376;-10.782;2023-08-12T01:55:02;6.85;;;5.80;;
56299;SDS011;42209;6.376;-10.782;2023-08-12T02:00:00;7.13;;;5.82;;
56299;SDS011;42209;6.376;-10.782;2023-08-12T02:02:42;7.00;;;6.05;;
56299;SDS011;42209;6.376;-10.782;2023-08-12T02:05:10;9.32;;;5.18;;
56299;SDS011;42209;6.376;-10.782;2023-08-12T02:07:39;8.82;;;6.47;;
56299;SDS011;42209;6.376;-10.782;2023-08-12T02:10:08;7.60;;;5.90;;
56299;SDS011;42209;6.376;-10.782;2023-08-12T02:15:06;7.53;;;6.05;;
56299;SDS011;42209;6.376;-10.782;2023-08-12T02:17:34;6.43;;;5.72;;
56299;SDS011;42209;6.376;-10.782;2023-08-12T02:20:03;5.60;;;5.00;;
56299;SDS011;42209;6.376;-10.782;2023-08-12T02:22:31;6.30;;;5.45;;
56299;SDS011;42209;6.376;-10.782;2023-08-12T02:25:00;6.97;;;4.95;;
56299;SDS011;42209;6.376;-10.782;2023-08-12T02:27:29;5.03;;;4.40;;
56299;SDS011;42209;6.376;-10.782;2023-08-12T02:29:57;7.10;;;5.28;;
56299;SDS011;42209;6.376;-10.782;2023-08-12T02:32:26;6.55;;;5.53;;
56299;SDS011;42209;6.376;-10.782;2023-08-12T02:34:55;6.90;;;5.85;;
56299;SDS011;42209;6.376;-10.782;2023-08-12T02:37:23;7.95;;;5.82;;
56299;SDS011;42209;6.376;-10.782;2023-08-12T02:39:51;7.78;;;5.80;;
56299;SDS011;42209;6.376;-10.782;2023-08-12T02:42:20;6.97;;;6.28;;
56299;SDS011;42209;6.376;-10.782;2023-08-12T02:44:49;6.90;;;6.13;;
56299;SDS011;42209;6.376;-10.782;2023-08-12T02:47:17;10.15;;;6.18;;
56299;SDS011;42209;6.376;-10.782;2023-08-12T02:49:46;7.22;;;5.32;;
56299;SDS011;42209;6.376;-10.782;2023-08-12T02:52:14;6.13;;;5.22;;
56299;SDS011;42209;6.376;-10.782;2023-08-12T02:54:42;9.63;;;5.68;;
56299;SDS011;42209;6.376;-10.782;2023-08-12T02:57:11;6.38;;;5.38;;
56299;SDS011;42209;6.376;-10.782;2023-08-12T02:59:40;6.55;;;5.40;;
56299;SDS011;42209;6.376;-10.782;2023-08-12T03:02:08;6.90;;;5.53;;
56299;SDS011;42209;6.376;-10.782;2023-08-12T03:04:36;4.47;;;4.05;;
56299;SDS011;42209;6.376;-10.782;2023-08-12T03:07:05;5.80;;;5.03;;
56299;SDS011;42209;6.376;-10.782;2023-08-12T03:12:02;6.55;;;4.75;;
56299;SDS011;42209;6.376;-10.782;2023-08-12T03:14:31;7.47;;;5.68;;
56299;SDS011;42209;6.376;-10.782;2023-08-12T03:17:01;7.30;;;5.95;;
56299;SDS011;42209;6.376;-10.782;2023-08-12T03:19:31;6.38;;;4.90;;
56299;SDS011;42209;6.376;-10.782;2023-08-12T03:21:59;6.10;;;5.00;;
56299;SDS011;42209;6.376;-10.782;2023-08-12T03:24:28;8.63;;;5.28;;
56299;SDS011;42209;6.376;-10.782;2023-08-12T03:26:58;7.68;;;5.30;;
56299;SDS011;42209;6.376;-10.782;2023-08-12T03:29:29;8.52;;;6.72;;
56299;SDS011;42209;6.376;-10.782;2023-08-12T03:31:59;5.60;;;5.05;;
56299;SDS011;42209;6.376;-10.782;2023-08-12T03:34:28;7.30;;;5.43;;
56299;SDS011;42209;6.376;-10.782;2023-08-12T03:36:57;8.75;;;5.72;;
56299;SDS011;42209;6.376;-10.782;2023-08-12T03:39:26;6.28;;;5.07;;
56299;SDS011;42209;6.376;-10.782;2023-08-12T03:41:56;6.25;;;4.70;;
56299;SDS011;42209;6.376;-10.782;2023-08-12T03:44:25;5.72;;;4.80;;
56299;SDS011;42209;6.376;-10.782;2023-08-12T03:46:53;5.65;;;4.22;;
56299;SDS011;42209;6.376;-10.782;2023-08-12T03:49:22;5.55;;;3.47;;
56299;SDS011;42209;6.376;-10.782;2023-08-12T03:51:51;5.90;;;4.65;;
56299;SDS011;42209;6.376;-10.782;2023-08-12T03:54:19;5.05;;;4.43;;
56299;SDS011;42209;6.376;-10.782;2023-08-12T03:56:47;7.53;;;4.60;;
56299;SDS011;42209;6.376;-10.782;2023-08-12T03:59:17;7.30;;;4.50;;
56299;SDS011;42209;6.376;-10.782;2023-08-12T04:01:45;7.75;;;5.10;;
56299;SDS011;42209;6.376;-10.782;2023-08-12T04:04:14;6.05;;;4.50;;
56299;SDS011;42209;6.376;-10.782;2023-08-12T04:06:42;7.63;;;5.32;;
56299;SDS011;42209;6.376;-10.782;2023-08-12T04:09:10;6.55;;;5.85;;
56299;SDS011;42209;6.376;-10.782;2023-08-12T04:11:39;9.48;;;5.70;;
56299;SDS011;42209;6.376;-10.782;2023-08-12T04:14:08;9.60;;;5.43;;
56299;SDS011;42209;6.376;-10.782;2023-08-12T04:16:36;7.03;;;5.30;;
56299;SDS011;42209;6.376;-10.782;2023-08-12T04:19:04;6.38;;;5.10;;
56299;SDS011;42209;6.376;-10.782;2023-08-12T04:21:33;9.38;;;5.78;;
56299;SDS011;42209;6.376;-10.782;2023-08-12T04:24:02;6.40;;;4.72;;
56299;SDS011;42209;6.376;-10.782;2023-08-12T04:26:31;5.40;;;4.72;;
56299;SDS011;42209;6.376;-10.782;2023-08-12T04:28:59;6.22;;;4.35;;
56299;SDS011;42209;6.376;-10.782;2023-08-12T04:31:28;7.00;;;4.63;;
56299;SDS011;42209;6.376;-10.782;2023-08-12T04:33:56;5.95;;;4.82;;
56299;SDS011;42209;6.376;-10.782;2023-08-12T04:36:26;8.02;;;5.93;;
56299;SDS011;42209;6.376;-10.782;2023-08-12T04:38:56;7.55;;;5.25;;
56299;SDS011;42209;6.376;-10.782;2023-08-12T04:41:24;4.80;;;4.40;;
56299;SDS011;42209;6.376;-10.782;2023-08-12T04:43:54;5.65;;;5.05;;
56299;SDS011;42209;6.376;-10.782;2023-08-12T04:46:26;5.75;;;5.10;;
56299;SDS011;42209;6.376;-10.782;2023-08-12T04:48:54;7.32;;;5.45;;
56299;SDS011;42209;6.376;-10.782;2023-08-12T04:51:23;5.72;;;5.22;;
56299;SDS011;42209;6.376;-10.782;2023-08-12T04:53:51;4.55;;;4.15;;
56299;SDS011;42209;6.376;-10.782;2023-08-12T04:56:20;6.65;;;4.43;;
56299;SDS011;42209;6.376;-10.782;2023-08-12T04:58:48;5.65;;;4.50;;
56299;SDS011;42209;6.376;-10.782;2023-08-12T05:01:17;6.40;;;4.35;;
56299;SDS011;42209;6.376;-10.782;2023-08-12T05:03:45;4.55;;;4.15;;
56299;SDS011;42209;6.376;-10.782;2023-08-12T05:06:13;6.70;;;4.70;;
56299;SDS011;42209;6.376;-10.782;2023-08-12T05:08:42;5.63;;;4.78;;
56299;SDS011;42209;6.376;-10.782;2023-08-12T05:11:10;7.85;;;5.25;;
56299;SDS011;42209;6.376;-10.782;2023-08-12T05:13:39;5.22;;;4.65;;
56299;SDS011;42209;6.376;-10.782;2023-08-12T05:16:07;7.95;;;5.68;;
56299;SDS011;42209;6.376;-10.782;2023-08-12T05:18:36;9.57;;;4.82;;
56299;SDS011;42209;6.376;-10.782;2023-08-12T05:21:05;6.72;;;4.68;;
56299;SDS011;42209;6.376;-10.782;2023-08-12T05:23:33;7.50;;;4.53;;
56299;SDS011;42209;6.376;-10.782;2023-08-12T05:26:03;5.78;;;5.18;;
56299;SDS011;42209;6.376;-10.782;2023-08-12T05:28:31;6.78;;;4.72;;
56299;SDS011;42209;6.376;-10.782;2023-08-12T05:30:59;5.82;;;4.78;;
56299;SDS011;42209;6.376;-10.782;2023-08-12T05:33:28;5.43;;;4.22;;
56299;SDS011;42209;6.376;-10.782;2023-08-12T05:35:56;7.55;;;4.20;;
56299;SDS011;42209;6.376;-10.782;2023-08-12T05:38:24;5.40;;;4.03;;
56299;SDS011;42209;6.376;-10.782;2023-08-12T05:40:53;7.28;;;4.25;;
56299;SDS011;42209;6.376;-10.782;2023-08-12T05:43:21;4.47;;;4.07;;
56299;SDS011;42209;6.376;-10.782;2023-08-12T05:45:49;6.78;;;4.63;;
56299;SDS011;42209;6.376;-10.782;2023-08-12T05:48:21;5.93;;;4.18;;
56299;SDS011;42209;6.376;-10.782;2023-08-12T05:50:49;5.28;;;4.00;;
56299;SDS011;42209;6.376;-10.782;2023-08-12T05:53:18;5.40;;;4.78;;
56299;SDS011;42209;6.376;-10.782;2023-08-12T05:55:46;6.47;;;5.20;;
56299;SDS011;42209;6.376;-10.782;2023-08-12T05:58:14;8.25;;;6.15;;
56299;SDS011;42209;6.376;-10.782;2023-08-12T06:00:43;5.80;;;5.03;;
56299;SDS011;42209;6.376;-10.782;2023-08-12T06:03:12;7.07;;;5.10;;
56299;SDS011;42209;6.376;-10.782;2023-08-12T06:05:40;7.72;;;4.97;;
56299;SDS011;42209;6.376;-10.782;2023-08-12T06:08:10;6.22;;;4.63;;
56299;SDS011;42209;6.376;-10.782;2023-08-12T06:10:39;5.85;;;4.63;;
56299;SDS011;42209;6.376;-10.782;2023-08-12T06:13:07;4.97;;;4.45;;
56299;SDS011;42209;6.376;-10.782;2023-08-12T06:15:36;5.40;;;4.30;;
56299;SDS011;42209;6.376;-10.782;2023-08-12T06:18:04;6.15;;;4.43;;
56299;SDS011;42209;6.376;-10.782;2023-08-12T06:20:33;4.75;;;3.80;;
56299;SDS011;42209;6.376;-10.782;2023-08-12T06:23:01;5.20;;;4.70;;
56299;SDS011;42209;6.376;-10.782;2023-08-12T06:25:30;6.72;;;5.13;;
56299;SDS011;42209;6.376;-10.782;2023-08-12T06:27:58;5.65;;;4.97;;
56299;SDS011;42209;6.376;-10.782;2023-08-12T06:30:27;6.00;;;5.03;;
56299;SDS011;42209;6.376;-10.782;2023-08-12T06:32:55;7.25;;;5.10;;
56299;SDS011;42209;6.376;-10.782;2023-08-12T06:35:24;5.60;;;4.80;;
56299;SDS011;42209;6.376;-10.782;2023-08-12T06:37:52;6.95;;;5.55;;
56299;SDS011;42209;6.376;-10.782;2023-08-12T06:40:21;6.85;;;4.90;;
56299;SDS011;42209;6.376;-10.782;2023-08-12T06:45:19;5.72;;;4.63;;
56299;SDS011;42209;6.376;-10.782;2023-08-12T06:47:47;7.53;;;4.70;;
56299;SDS011;42209;6.376;-10.782;2023-08-12T06:50:16;5.50;;;4.75;;
56299;SDS011;42209;6.376;-10.782;2023-08-12T06:52:44;5.45;;;4.57;;
56299;SDS011;42209;6.376;-10.782;2023-08-12T06:55:13;4.80;;;4.40;;
56299;SDS011;42209;6.376;-10.782;2023-08-12T06:57:41;5.05;;;4.63;;
56299;SDS011;42209;6.376;-10.782;2023-08-12T07:00:10;8.93;;;5.13;;
56299;SDS011;42209;6.376;-10.782;2023-08-12T07:02:38;6.90;;;5.20;;
56299;SDS011;42209;6.376;-10.782;2023-08-12T07:05:07;6.22;;;4.95;;
56299;SDS011;42209;6.376;-10.782;2023-08-12T07:07:36;6.03;;;4.75;;
56299;SDS011;42209;6.376;-10.782;2023-08-12T07:10:04;6.43;;;5.78;;
56299;SDS011;42209;6.376;-10.782;2023-08-12T07:12:33;6.72;;;5.32;;
56299;SDS011;42209;6.376;-10.782;2023-08-12T07:15:02;9.10;;;5.53;;
56299;SDS011;42209;6.376;-10.782;2023-08-12T07:17:30;6.97;;;5.13;;
56299;SDS011;42209;6.376;-10.782;2023-08-12T07:19:59;5.95;;;4.93;;
56299;SDS011;42209;6.376;-10.782;2023-08-12T07:22:27;6.07;;;5.05;;
56299;SDS011;42209;6.376;-10.782;2023-08-12T07:24:55;4.70;;;4.28;;
56299;SDS011;42209;6.376;-10.782;2023-08-12T07:27:24;5.40;;;4.25;;
56299;SDS011;42209;6.376;-10.782;2023-08-12T07:29:52;8.00;;;4.28;;
56299;SDS011;42209;6.376;-10.782;2023-08-12T07:34:49;5.55;;;4.95;;
56299;SDS011;42209;6.376;-10.782;2023-08-12T07:37:18;6.00;;;5.05;;
56299;SDS011;42209;6.376;-10.782;2023-08-12T07:42:14;6.60;;;5.57;;
56299;SDS011;42209;6.376;-10.782;2023-08-12T07:44:43;7.47;;;5.40;;
56299;SDS011;42209;6.376;-10.782;2023-08-12T07:47:11;5.15;;;4.65;;
56299;SDS011;42209;6.376;-10.782;2023-08-12T07:49:40;6.85;;;6.13;;
56299;SDS011;42209;6.376;-10.782;2023-08-12T07:52:09;8.40;;;5.60;;
56299;SDS011;42209;6.376;-10.782;2023-08-12T07:54:38;7.03;;;5.13;;
56299;SDS011;42209;6.376;-10.782;2023-08-12T07:57:06;5.63;;;4.57;;
56299;SDS011;42209;6.376;-10.782;2023-08-12T07:59:35;7.13;;;4.95;;
56299;SDS011;42209;6.376;-10.782;2023-08-12T08:04:31;4.72;;;3.88;;
56299;SDS011;42209;6.376;-10.782;2023-08-12T08:07:00;7.63;;;4.93;;
56299;SDS011;42209;6.376;-10.782;2023-08-12T08:09:29;5.88;;;5.10;;
56299;SDS011;42209;6.376;-10.782;2023-08-12T08:11:57;6.30;;;5.13;;
56299;SDS011;42209;6.376;-10.782;2023-08-12T08:14:26;5.35;;;4.88;;
56299;SDS011;42209;6.376;-10.782;2023-08-12T08:19:24;7.35;;;5.35;;
56299;SDS011;42209;6.376;-10.782;2023-08-12T08:21:56;7.03;;;5.32;;
56299;SDS011;42209;6.376;-10.782;2023-08-12T08:24:25;5.97;;;5.22;;
56299;SDS011;42209;6.376;-10.782;2023-08-12T08:29:22;7.70;;;5.32;;
56299;SDS011;42209;6.376;-10.782;2023-08-12T08:31:50;4.72;;;4.32;;
56299;SDS011;42209;6.376;-10.782;2023-08-12T08:34:19;5.40;;;4.63;;
56299;SDS011;42209;6.376;-10.782;2023-08-12T08:36:47;5.18;;;4.68;;
56299;SDS011;42209;6.376;-10.782;2023-08-12T08:39:16;5.45;;;4.22;;
56299;SDS011;42209;6.376;-10.782;2023-08-12T08:41:44;9.65;;;6.50;;
56299;SDS011;42209;6.376;-10.782;2023-08-12T08:44:15;8.45;;;6.90;;
56299;SDS011;42209;6.376;-10.782;2023-08-12T08:46:45;7.60;;;6.13;;
56299;SDS011;42209;6.376;-10.782;2023-08-12T08:51:43;8.30;;;6.22;;
56299;SDS011;42209;6.376;-10.782;2023-08-12T08:54:34;11.40;;;6.13;;
56299;SDS011;42209;6.376;-10.782;2023-08-12T08:57:02;7.60;;;6.15;;
56299;SDS011;42209;6.376;-10.782;2023-08-12T08:59:46;6.63;;;6.00;;
56299;SDS011;42209;6.376;-10.782;2023-08-12T09:02:24;7.97;;;6.03;;
56299;SDS011;42209;6.376;-10.782;2023-08-12T09:04:53;9.25;;;5.95;;
56299;SDS011;42209;6.376;-10.782;2023-08-12T09:07:23;8.45;;;5.85;;
56299;SDS011;42209;6.376;-10.782;2023-08-12T09:09:52;10.80;;;6.28;;
56299;SDS011;42209;6.376;-10.782;2023-08-12T09:12:24;5.90;;;5.30;;
56299;SDS011;42209;6.376;-10.782;2023-08-12T09:14:54;6.40;;;5.30;;
56299;SDS011;42209;6.376;-10.782;2023-08-12T09:17:30;8.48;;;5.80;;
56299;SDS011;42209;6.376;-10.782;2023-08-12T09:19:59;7.78;;;6.07;;
56299;SDS011;42209;6.376;-10.782;2023-08-12T09:22:30;8.88;;;6.50;;
56299;SDS011;42209;6.376;-10.782;2023-08-12T09:24:58;13.82;;;7.20;;
56299;SDS011;42209;6.376;-10.782;2023-08-12T09:27:27;6.57;;;5.43;;
56299;SDS011;42209;6.376;-10.782;2023-08-12T09:29:58;6.78;;;5.07;;
56299;SDS011;42209;6.376;-10.782;2023-08-12T09:32:33;8.23;;;5.75;;
56299;SDS011;42209;6.376;-10.782;2023-08-12T09:35:31;6.63;;;4.82;;
56299;SDS011;42209;6.376;-10.782;2023-08-12T09:38:11;6.07;;;5.25;;
56299;SDS011;42209;6.376;-10.782;2023-08-12T09:40:40;7.97;;;6.18;;
56299;SDS011;42209;6.376;-10.782;2023-08-12T09:43:09;8.15;;;6.60;;
56299;SDS011;42209;6.376;-10.782;2023-08-12T09:45:38;8.27;;;5.95;;
56299;SDS011;42209;6.376;-10.782;2023-08-12T09:48:08;6.32;;;5.72;;
56299;SDS011;42209;6.376;-10.782;2023-08-12T09:50:38;6.93;;;5.22;;
56299;SDS011;42209;6.376;-10.782;2023-08-12T09:53:06;7.90;;;5.53;;
56299;SDS011;42209;6.376;-10.782;2023-08-12T09:55:36;9.90;;;6.22;;
56299;SDS011;42209;6.376;-10.782;2023-08-12T09:58:08;6.65;;;5.82;;
56299;SDS011;42209;6.376;-10.782;2023-08-12T10:00:39;7.10;;;6.40;;
56299;SDS011;42209;6.376;-10.782;2023-08-12T10:03:08;7.78;;;6.68;;
56299;SDS011;42209;6.376;-10.782;2023-08-12T10:05:39;10.90;;;7.45;;
56299;SDS011;42209;6.376;-10.782;2023-08-12T10:08:07;9.13;;;5.80;;
56299;SDS011;42209;6.376;-10.782;2023-08-12T10:10:36;7.93;;;4.97;;
56299;SDS011;42209;6.376;-10.782;2023-08-12T10:13:06;7.40;;;5.47;;
56299;SDS011;42209;6.376;-10.782;2023-08-12T10:15:36;5.45;;;4.05;;
56299;SDS011;42209;6.376;-10.782;2023-08-12T10:18:05;7.47;;;4.40;;
56299;SDS011;42209;6.376;-10.782;2023-08-12T10:20:38;6.47;;;4.25;;
56299;SDS011;42209;6.376;-10.782;2023-08-12T10:23:08;6.10;;;4.05;;
56299;SDS011;42209;6.376;-10.782;2023-08-12T10:25:43;4.97;;;3.72;;
56299;SDS011;42209;6.376;-10.782;2023-08-12T10:28:12;5.90;;;4.30;;
56299;SDS011;42209;6.376;-10.782;2023-08-12T10:30:41;6.32;;;4.40;;
56299;SDS011;42209;6.376;-10.782;2023-08-12T10:33:10;5.43;;;3.72;;
56299;SDS011;42209;6.376;-10.782;2023-08-12T10:35:48;3.75;;;3.33;;
56299;SDS011;42209;6.376;-10.782;2023-08-12T10:38:18;8.32;;;4.22;;
56299;SDS011;42209;6.376;-10.782;2023-08-12T10:40:47;5.28;;;3.83;;
56299;SDS011;42209;6.376;-10.782;2023-08-12T10:43:16;6.65;;;3.58;;
56299;SDS011;42209;6.376;-10.782;2023-08-12T10:48:17;5.80;;;3.83;;
56299;SDS011;42209;6.376;-10.782;2023-08-12T10:50:54;5.43;;;3.72;;
56299;SDS011;42209;6.376;-10.782;2023-08-12T10:53:29;4.18;;;3.75;;
56299;SDS011;42209;6.376;-10.782;2023-08-12T10:56:02;6.13;;;5.15;;
56299;SDS011;42209;6.376;-10.782;2023-08-12T11:01:18;5.78;;;5.10;;
56299;SDS011;42209;6.376;-10.782;2023-08-12T11:03:50;7.97;;;5.38;;
56299;SDS011;42209;6.376;-10.782;2023-08-12T11:06:19;5.70;;;4.40;;
56299;SDS011;42209;6.376;-10.782;2023-08-12T11:08:48;6.50;;;4.65;;
56299;SDS011;42209;6.376;-10.782;2023-08-12T11:11:23;7.45;;;4.85;;
56299;SDS011;42209;6.376;-10.782;2023-08-12T11:13:53;6.10;;;5.00;;
56299;SDS011;42209;6.376;-10.782;2023-08-12T11:16:31;7.00;;;4.95;;
56299;SDS011;42209;6.376;-10.782;2023-08-12T11:19:05;7.50;;;4.78;;
56299;SDS011;42209;6.376;-10.782;2023-08-12T11:21:37;6.70;;;4.55;;
56299;SDS011;42209;6.376;-10.782;2023-08-12T11:24:07;6.05;;;5.18;;
56299;SDS011;42209;6.376;-10.782;2023-08-12T11:26:35;6.15;;;5.28;;
56299;SDS011;42209;6.376;-10.782;2023-08-12T11:29:24;6.85;;;5.53;;
56299;SDS011;42209;6.376;-10.782;2023-08-12T11:31:53;6.70;;;5.63;;
56299;SDS011;42209;6.376;-10.782;2023-08-12T11:34:30;6.18;;;5.57;;
56299;SDS011;42209;6.376;-10.782;2023-08-12T11:37:14;7.10;;;5.72;;
56299;SDS011;42209;6.376;-10.782;2023-08-12T11:39:51;8.70;;;5.55;;
56299;SDS011;42209;6.376;-10.782;2023-08-12T11:42:20;7.05;;;6.35;;
56299;SDS011;42209;6.376;-10.782;2023-08-12T11:44:49;7.68;;;5.93;;
56299;SDS011;42209;6.376;-10.782;2023-08-12T11:47:17;9.07;;;6.20;;
56299;SDS011;42209;6.376;-10.782;2023-08-12T11:52:14;6.38;;;5.75;;
56299;SDS011;42209;6.376;-10.782;2023-08-12T11:57:12;9.63;;;5.97;;
56299;SDS011;42209;6.376;-10.782;2023-08-12T11:59:40;6.35;;;5.50;;
56299;SDS011;42209;6.376;-10.782;2023-08-12T12:02:10;7.07;;;5.70;;
56299;SDS011;42209;6.376;-10.782;2023-08-12T12:04:40;5.15;;;4.65;;
56299;SDS011;42209;6.376;-10.782;2023-08-12T12:07:27;6.10;;;5.13;;
56299;SDS011;42209;6.376;-10.782;2023-08-12T12:09:59;5.53;;;4.88;;
56299;SDS011;42209;6.376;-10.782;2023-08-12T12:12:28;7.28;;;5.60;;
56299;SDS011;42209;6.376;-10.782;2023-08-12T12:14:56;6.82;;;5.97;;
56299;SDS011;42209;6.376;-10.782;2023-08-12T12:17:27;5.35;;;4.82;;
56299;SDS011;42209;6.376;-10.782;2023-08-12T12:19:58;7.20;;;6.25;;
56299;SDS011;42209;6.376;-10.782;2023-08-12T12:25:12;7.65;;;5.63;;
56299;SDS011;42209;6.376;-10.782;2023-08-12T12:27:43;8.00;;;6.63;;
56299;SDS011;42209;6.376;-10.782;2023-08-12T12:30:14;14.32;;;6.97;;
56299;SDS011;42209;6.376;-10.782;2023-08-12T12:32:43;13.60;;;6.07;;
56299;SDS011;42209;6.376;-10.782;2023-08-12T12:35:12;12.60;;;6.25;;
56299;SDS011;42209;6.376;-10.782;2023-08-12T12:37:41;10.82;;;6.15;;
56299;SDS011;42209;6.376;-10.782;2023-08-12T12:40:10;9.50;;;5.50;;
56299;SDS011;42209;6.376;-10.782;2023-08-12T12:42:39;13.63;;;5.80;;
56299;SDS011;42209;6.376;-10.782;2023-08-12T12:45:08;13.82;;;6.78;;
56299;SDS011;42209;6.376;-10.782;2023-08-12T12:47:40;11.82;;;5.95;;
56299;SDS011;42209;6.376;-10.782;2023-08-12T12:50:08;12.05;;;7.18;;
56299;SDS011;42209;6.376;-10.782;2023-08-12T12:52:37;10.80;;;6.07;;
56299;SDS011;42209;6.376;-10.782;2023-08-12T12:55:08;11.13;;;6.60;;
56299;SDS011;42209;6.376;-10.782;2023-08-12T12:57:37;7.97;;;6.45;;
56299;SDS011;42209;6.376;-10.782;2023-08-12T13:00:05;12.02;;;6.82;;
56299;SDS011;42209;6.376;-10.782;2023-08-12T13:02:34;11.25;;;6.82;;
56299;SDS011;42209;6.376;-10.782;2023-08-12T13:07:31;10.18;;;7.13;;
56299;SDS011;42209;6.376;-10.782;2023-08-12T13:12:28;10.90;;;8.18;;
56299;SDS011;42209;6.376;-10.782;2023-08-12T13:17:28;13.02;;;7.95;;
56299;SDS011;42209;6.376;-10.782;2023-08-12T13:19:56;11.73;;;8.20;;
56299;SDS011;42209;6.376;-10.782;2023-08-12T13:22:24;9.82;;;7.57;;
56299;SDS011;42209;6.376;-10.782;2023-08-12T13:24:53;12.63;;;7.78;;
56299;SDS011;42209;6.376;-10.782;2023-08-12T13:27:22;15.13;;;7.35;;
56299;SDS011;42209;6.376;-10.782;2023-08-12T13:29:51;11.20;;;8.18;;
56299;SDS011;42209;6.376;-10.782;2023-08-12T13:32:22;9.80;;;7.28;;
56299;SDS011;42209;6.376;-10.782;2023-08-12T13:34:51;9.43;;;7.70;;
56299;SDS011;42209;6.376;-10.782;2023-08-12T13:37:19;8.63;;;7.75;;
56299;SDS011;42209;6.376;-10.782;2023-08-12T13:39:47;8.07;;;7.30;;
56299;SDS011;42209;6.376;-10.782;2023-08-12T13:42:16;10.45;;;7.85;;
56299;SDS011;42209;6.376;-10.782;2023-08-12T13:44:44;10.93;;;7.35;;
56299;SDS011;42209;6.376;-10.782;2023-08-12T13:47:13;10.52;;;7.82;;
56299;SDS011;42209;6.376;-10.782;2023-08-12T13:49:41;10.73;;;7.90;;
56299;SDS011;42209;6.376;-10.782;2023-08-12T13:52:09;11.20;;;7.50;;
56299;SDS011;42209;6.376;-10.782;2023-08-12T13:54:38;11.43;;;7.82;;
56299;SDS011;42209;6.376;-10.782;2023-08-12T13:57:06;11.65;;;7.68;;
56299;SDS011;42209;6.376;-10.782;2023-08-12T13:59:35;9.45;;;7.50;;
56299;SDS011;42209;6.376;-10.782;2023-08-12T14:02:03;7.78;;;6.50;;
56299;SDS011;42209;6.376;-10.782;2023-08-12T14:04:32;9.23;;;7.20;;
56299;SDS011;42209;6.376;-10.782;2023-08-12T14:07:00;9.07;;;6.40;;
56299;SDS011;42209;6.376;-10.782;2023-08-12T14:09:29;8.55;;;5.97;;
56299;SDS011;42209;6.376;-10.782;2023-08-12T14:11:57;9.02;;;6.50;;
56299;SDS011;42209;6.376;-10.782;2023-08-12T14:14:26;8.70;;;5.72;;
56299;SDS011;42209;6.376;-10.782;2023-08-12T14:16:54;9.30;;;6.68;;
56299;SDS011;42209;6.376;-10.782;2023-08-12T14:19:23;7.63;;;6.50;;
56299;SDS011;42209;6.376;-10.782;2023-08-12T14:21:52;9.38;;;6.72;;
56299;SDS011;42209;6.376;-10.782;2023-08-12T14:24:20;10.60;;;8.07;;
56299;SDS011;42209;6.376;-10.782;2023-08-12T14:26:48;8.80;;;7.05;;
56299;SDS011;42209;6.376;-10.782;2023-08-12T14:29:17;7.45;;;6.38;;
56299;SDS011;42209;6.376;-10.782;2023-08-12T14:31:45;10.27;;;7.15;;
56299;SDS011;42209;6.376;-10.782;2023-08-12T14:34:14;11.60;;;7.55;;
56299;SDS011;42209;6.376;-10.782;2023-08-12T14:36:42;8.68;;;7.32;;
56299;SDS011;42209;6.376;-10.782;2023-08-12T14:39:11;10.48;;;7.13;;
56299;SDS011;42209;6.376;-10.782;2023-08-12T14:41:39;8.35;;;6.57;;
56299;SDS011;42209;6.376;-10.782;2023-08-12T14:44:07;9.15;;;6.65;;
56299;SDS011;42209;6.376;-10.782;2023-08-12T14:46:36;6.30;;;5.70;;
56299;SDS011;42209;6.376;-10.782;2023-08-12T14:49:04;7.80;;;6.55;;
56299;SDS011;42209;6.376;-10.782;2023-08-12T14:51:32;7.25;;;6.45;;
56299;SDS011;42209;6.376;-10.782;2023-08-12T14:54:01;8.32;;;5.70;;
56299;SDS011;42209;6.376;-10.782;2023-08-12T14:56:29;8.05;;;6.38;;
56299;SDS011;42209;6.376;-10.782;2023-08-12T14:58:58;8.50;;;5.85;;
56299;SDS011;42209;6.376;-10.782;2023-08-12T15:01:26;7.78;;;6.13;;
56299;SDS011;42209;6.376;-10.782;2023-08-12T15:03:55;8.10;;;6.70;;
56299;SDS011;42209;6.376;-10.782;2023-08-12T15:06:23;7.28;;;6.38;;
56299;SDS011;42209;6.376;-10.782;2023-08-12T15:08:52;8.25;;;6.03;;
56299;SDS011;42209;6.376;-10.782;2023-08-12T15:11:22;8.32;;;6.38;;
56299;SDS011;42209;6.376;-10.782;2023-08-12T15:13:50;9.40;;;6.13;;
56299;SDS011;42209;6.376;-10.782;2023-08-12T15:16:19;10.20;;;7.13;;
56299;SDS011;42209;6.376;-10.782;2023-08-12T15:18:47;9.32;;;6.55;;
56299;SDS011;42209;6.376;-10.782;2023-08-12T15:21:16;6.95;;;6.25;;
56299;SDS011;42209;6.376;-10.782;2023-08-12T15:23:44;9.23;;;6.50;;
56299;SDS011;42209;6.376;-10.782;2023-08-12T15:26:13;8.18;;;6.93;;
56299;SDS011;42209;6.376;-10.782;2023-08-12T15:28:41;6.85;;;6.13;;
56299;SDS011;42209;6.376;-10.782;2023-08-12T15:31:13;9.43;;;6.60;;
56299;SDS011;42209;6.376;-10.782;2023-08-12T15:33:41;6.93;;;6.22;;
56299;SDS011;42209;6.376;-10.782;2023-08-12T15:36:10;8.75;;;6.05;;
56299;SDS011;42209;6.376;-10.782;2023-08-12T15:38:38;6.75;;;6.05;;
56299;SDS011;42209;6.376;-10.782;2023-08-12T15:41:15;6.15;;;5.28;;